sensor_id;sensor_type;location;lat;lon;timestamp;P1;durP1;ratioP1;P2;durP2;ratioP2
75272;SDS011;63869;52.344;16.928;2024-01-06T07:28:20;15.57;;;7.47;;
75272;SDS011;63869;52.344;16.928;2024-01-06T09:05:06;19.33;;;9.40;;
75272;SDS011;63869;52.344;16.928;2024-01-06T09:13:06;17.55;;;8.93;;
75272;SDS011;63869;52.344;16.928;2024-01-06T09:20:36;24.27;;;10.50;;
75272;SDS011;63869;52.344;16.928;2024-01-06T09:23:04;19.20;;;9.07;;
75272;SDS011;63869;52.344;16.928;2024-01-06T09:25:33;20.08;;;8.98;;
75272;SDS011;63869;52.344;16.928;2024-01-06T09:28:04;19.67;;;8.65;;
75272;SDS011;63869;52.344;16.928;2024-01-06T09:30:29;18.60;;;8.75;;
75272;SDS011;63869;52.344;16.928;2024-01-06T09:32:57;21.42;;;9.10;;
75272;SDS011;63869;52.344;16.928;2024-01-06T09:38:15;16.77;;;8.90;;
75272;SDS011;63869;52.344;16.928;2024-01-06T09:40:43;19.25;;;8.98;;
75272;SDS011;63869;52.344;16.928;2024-01-06T09:43:09;21.13;;;10.15;;
75272;SDS011;63869;52.344;16.928;2024-01-06T09:45:38;19.92;;;9.25;;
75272;SDS011;63869;52.344;16.928;2024-01-06T12:05:04;27.70;;;11.85;;
75272;SDS011;63869;52.344;16.928;2024-01-06T12:17:52;18.52;;;8.10;;
75272;SDS011;63869;52.344;16.928;2024-01-06T12:20:18;13.65;;;7.47;;
75272;SDS011;63869;52.344;16.928;2024-01-06T12:22:43;15.88;;;7.18;;
75272;SDS011;63869;52.344;16.928;2024-01-06T12:25:09;17.48;;;6.78;;
75272;SDS011;63869;52.344;16.928;2024-01-06T12:27:43;12.68;;;7.43;;
75272;SDS011;63869;52.344;16.928;2024-01-06T12:30:12;10.80;;;5.80;;
75272;SDS011;63869;52.344;16.928;2024-01-06T12:32:40;10.10;;;6.00;;
75272;SDS011;63869;52.344;16.928;2024-01-06T12:35:05;14.57;;;7.93;;
75272;SDS011;63869;52.344;16.928;2024-01-06T12:37:31;13.38;;;7.38;;
75272;SDS011;63869;52.344;16.928;2024-01-06T12:39:56;13.43;;;7.35;;
75272;SDS011;63869;52.344;16.928;2024-01-06T12:42:21;21.13;;;9.13;;
75272;SDS011;63869;52.344;16.928;2024-01-06T12:44:48;14.07;;;7.57;;
75272;SDS011;63869;52.344;16.928;2024-01-06T12:47:14;17.85;;;8.40;;
75272;SDS011;63869;52.344;16.928;2024-01-06T12:49:39;13.60;;;7.00;;
75272;SDS011;63869;52.344;16.928;2024-01-06T12:52:04;10.90;;;6.53;;
75272;SDS011;63869;52.344;16.928;2024-01-06T12:54:29;11.93;;;6.15;;
75272;SDS011;63869;52.344;16.928;2024-01-06T12:56:54;14.30;;;6.55;;
75272;SDS011;63869;52.344;16.928;2024-01-06T12:59:20;12.35;;;6.40;;
75272;SDS011;63869;52.344;16.928;2024-01-06T13:01:49;17.33;;;8.57;;
75272;SDS011;63869;52.344;16.928;2024-01-06T13:04:17;15.18;;;7.28;;
75272;SDS011;63869;52.344;16.928;2024-01-06T13:09:13;57.35;;;18.10;;
75272;SDS011;63869;52.344;16.928;2024-01-06T13:11:44;18.20;;;8.45;;
75272;SDS011;63869;52.344;16.928;2024-01-06T13:14:09;15.50;;;8.13;;
75272;SDS011;63869;52.344;16.928;2024-01-06T13:16:34;31.10;;;13.27;;
75272;SDS011;63869;52.344;16.928;2024-01-06T13:19:01;16.45;;;8.77;;
75272;SDS011;63869;52.344;16.928;2024-01-06T13:21:27;24.27;;;10.57;;
75272;SDS011;63869;52.344;16.928;2024-01-06T13:23:53;14.25;;;6.90;;
75272;SDS011;63869;52.344;16.928;2024-01-06T13:26:20;17.00;;;7.38;;
75272;SDS011;63869;52.344;16.928;2024-01-06T13:28:46;10.00;;;5.40;;
75272;SDS011;63869;52.344;16.928;2024-01-06T13:31:12;14.20;;;6.30;;
75272;SDS011;63869;52.344;16.928;2024-01-06T13:33:37;15.63;;;6.45;;
75272;SDS011;63869;52.344;16.928;2024-01-06T13:36:02;9.63;;;5.00;;
75272;SDS011;63869;52.344;16.928;2024-01-06T13:38:29;13.57;;;6.97;;
75272;SDS011;63869;52.344;16.928;2024-01-06T13:40:54;15.05;;;6.65;;
75272;SDS011;63869;52.344;16.928;2024-01-06T13:43:24;14.95;;;6.78;;
75272;SDS011;63869;52.344;16.928;2024-01-06T13:45:49;12.45;;;5.93;;
75272;SDS011;63869;52.344;16.928;2024-01-06T13:48:14;14.50;;;6.53;;
75272;SDS011;63869;52.344;16.928;2024-01-06T13:50:39;16.90;;;7.28;;
75272;SDS011;63869;52.344;16.928;2024-01-06T13:53:05;14.63;;;6.63;;
75272;SDS011;63869;52.344;16.928;2024-01-06T13:55:31;14.98;;;5.82;;
75272;SDS011;63869;52.344;16.928;2024-01-06T13:57:56;12.85;;;6.00;;
75272;SDS011;63869;52.344;16.928;2024-01-06T14:00:21;15.35;;;6.15;;
75272;SDS011;63869;52.344;16.928;2024-01-06T14:02:47;13.38;;;6.78;;
75272;SDS011;63869;52.344;16.928;2024-01-06T14:05:12;10.73;;;4.90;;
75272;SDS011;63869;52.344;16.928;2024-01-06T14:07:38;12.40;;;5.50;;
75272;SDS011;63869;52.344;16.928;2024-01-06T14:10:10;15.40;;;7.10;;
75272;SDS011;63869;52.344;16.928;2024-01-06T14:12:35;10.13;;;4.88;;
75272;SDS011;63869;52.344;16.928;2024-01-06T14:15:09;12.10;;;5.73;;
75272;SDS011;63869;52.344;16.928;2024-01-06T14:17:35;18.52;;;9.18;;
75272;SDS011;63869;52.344;16.928;2024-01-06T14:22:34;9.43;;;4.65;;
75272;SDS011;63869;52.344;16.928;2024-01-06T14:24:59;11.68;;;5.65;;
75272;SDS011;63869;52.344;16.928;2024-01-06T14:27:25;17.00;;;7.00;;
75272;SDS011;63869;52.344;16.928;2024-01-06T14:29:51;13.60;;;6.55;;
75272;SDS011;63869;52.344;16.928;2024-01-06T14:32:18;12.80;;;6.05;;
75272;SDS011;63869;52.344;16.928;2024-01-06T14:34:43;16.80;;;6.32;;
75272;SDS011;63869;52.344;16.928;2024-01-06T14:37:08;11.85;;;5.55;;
75272;SDS011;63869;52.344;16.928;2024-01-06T14:44:39;27.33;;;9.35;;
75272;SDS011;63869;52.344;16.928;2024-01-06T14:47:04;10.80;;;5.37;;
75272;SDS011;63869;52.344;16.928;2024-01-06T14:49:30;11.73;;;4.93;;
75272;SDS011;63869;52.344;16.928;2024-01-06T14:51:55;17.58;;;6.97;;
75272;SDS011;63869;52.344;16.928;2024-01-06T14:54:20;14.15;;;6.03;;
75272;SDS011;63869;52.344;16.928;2024-01-06T14:56:45;14.60;;;5.73;;
75272;SDS011;63869;52.344;16.928;2024-01-06T14:59:11;14.68;;;6.43;;
75272;SDS011;63869;52.344;16.928;2024-01-06T15:01:37;14.52;;;6.47;;
75272;SDS011;63869;52.344;16.928;2024-01-06T15:04:02;13.98;;;6.18;;
75272;SDS011;63869;52.344;16.928;2024-01-06T15:06:40;15.00;;;6.55;;
75272;SDS011;63869;52.344;16.928;2024-01-06T15:09:05;12.77;;;5.28;;
75272;SDS011;63869;52.344;16.928;2024-01-06T15:11:30;23.48;;;8.50;;
75272;SDS011;63869;52.344;16.928;2024-01-06T15:13:55;16.75;;;6.45;;
75272;SDS011;63869;52.344;16.928;2024-01-06T15:16:20;8.90;;;4.85;;
75272;SDS011;63869;52.344;16.928;2024-01-06T15:18:46;13.82;;;5.40;;
75272;SDS011;63869;52.344;16.928;2024-01-06T15:21:12;9.18;;;4.20;;
75272;SDS011;63869;52.344;16.928;2024-01-06T15:23:38;11.45;;;5.03;;
75272;SDS011;63869;52.344;16.928;2024-01-06T15:26:04;8.60;;;4.18;;
75272;SDS011;63869;52.344;16.928;2024-01-06T15:28:29;7.22;;;3.53;;
75272;SDS011;63869;52.344;16.928;2024-01-06T15:30:54;8.50;;;4.00;;
75272;SDS011;63869;52.344;16.928;2024-01-06T15:33:19;9.45;;;4.25;;
75272;SDS011;63869;52.344;16.928;2024-01-06T15:35:45;8.60;;;4.05;;
75272;SDS011;63869;52.344;16.928;2024-01-06T15:38:10;12.88;;;4.88;;
75272;SDS011;63869;52.344;16.928;2024-01-06T15:40:35;9.45;;;4.35;;
75272;SDS011;63869;52.344;16.928;2024-01-06T15:43:00;8.80;;;4.43;;
75272;SDS011;63869;52.344;16.928;2024-01-06T15:45:26;10.35;;;4.65;;
75272;SDS011;63869;52.344;16.928;2024-01-06T15:47:51;11.02;;;4.68;;
75272;SDS011;63869;52.344;16.928;2024-01-06T15:50:16;10.85;;;5.03;;
75272;SDS011;63869;52.344;16.928;2024-01-06T15:52:41;13.98;;;5.00;;
75272;SDS011;63869;52.344;16.928;2024-01-06T15:55:08;8.90;;;4.80;;
75272;SDS011;63869;52.344;16.928;2024-01-06T15:57:34;10.20;;;4.78;;
75272;SDS011;63869;52.344;16.928;2024-01-06T16:00:00;15.68;;;5.38;;
75272;SDS011;63869;52.344;16.928;2024-01-06T16:02:25;8.98;;;4.35;;
75272;SDS011;63869;52.344;16.928;2024-01-06T16:07:22;10.80;;;4.72;;
75272;SDS011;63869;52.344;16.928;2024-01-06T16:12:22;13.15;;;5.22;;
75272;SDS011;63869;52.344;16.928;2024-01-06T16:17:27;12.52;;;4.90;;
75272;SDS011;63869;52.344;16.928;2024-01-06T16:19:55;11.88;;;4.78;;
75272;SDS011;63869;52.344;16.928;2024-01-06T16:22:26;14.60;;;5.80;;
75272;SDS011;63869;52.344;16.928;2024-01-06T16:29:57;15.63;;;6.13;;
75272;SDS011;63869;52.344;16.928;2024-01-06T16:32:26;12.45;;;6.10;;
75272;SDS011;63869;52.344;16.928;2024-01-06T16:34:57;16.48;;;7.03;;
75272;SDS011;63869;52.344;16.928;2024-01-06T16:37:25;17.38;;;6.88;;
75272;SDS011;63869;52.344;16.928;2024-01-06T16:42:23;15.63;;;6.47;;
75272;SDS011;63869;52.344;16.928;2024-01-06T16:44:49;17.45;;;6.60;;
75272;SDS011;63869;52.344;16.928;2024-01-06T16:47:14;11.23;;;5.82;;
75272;SDS011;63869;52.344;16.928;2024-01-06T16:49:39;18.85;;;7.40;;
75272;SDS011;63869;52.344;16.928;2024-01-06T16:52:04;14.82;;;6.28;;
75272;SDS011;63869;52.344;16.928;2024-01-06T16:54:29;15.95;;;6.00;;
75272;SDS011;63869;52.344;16.928;2024-01-06T16:56:55;17.15;;;7.00;;
75272;SDS011;63869;52.344;16.928;2024-01-06T16:59:24;16.10;;;6.32;;
75272;SDS011;63869;52.344;16.928;2024-01-06T17:04:23;17.05;;;5.85;;
75272;SDS011;63869;52.344;16.928;2024-01-06T17:06:48;15.27;;;5.60;;
75272;SDS011;63869;52.344;16.928;2024-01-06T17:09:13;13.43;;;5.50;;
75272;SDS011;63869;52.344;16.928;2024-01-06T17:11:38;24.25;;;9.60;;
75272;SDS011;63869;52.344;16.928;2024-01-06T17:14:03;33.38;;;11.73;;
75272;SDS011;63869;52.344;16.928;2024-01-06T17:16:29;29.27;;;11.43;;
75272;SDS011;63869;52.344;16.928;2024-01-06T17:18:54;21.05;;;8.27;;
75272;SDS011;63869;52.344;16.928;2024-01-06T17:21:19;13.70;;;6.50;;
75272;SDS011;63869;52.344;16.928;2024-01-06T17:23:45;22.70;;;8.48;;
75272;SDS011;63869;52.344;16.928;2024-01-06T17:26:11;12.90;;;6.03;;
75272;SDS011;63869;52.344;16.928;2024-01-06T17:28:36;44.28;;;18.65;;
75272;SDS011;63869;52.344;16.928;2024-01-06T17:31:02;16.20;;;7.13;;
75272;SDS011;63869;52.344;16.928;2024-01-06T17:33:27;18.27;;;7.05;;
75272;SDS011;63869;52.344;16.928;2024-01-06T17:35:52;21.08;;;8.98;;
75272;SDS011;63869;52.344;16.928;2024-01-06T17:38:19;22.83;;;8.23;;
75272;SDS011;63869;52.344;16.928;2024-01-06T17:40:44;27.17;;;11.90;;
75272;SDS011;63869;52.344;16.928;2024-01-06T17:43:09;15.02;;;6.35;;
75272;SDS011;63869;52.344;16.928;2024-01-06T17:45:37;13.85;;;5.28;;
75272;SDS011;63869;52.344;16.928;2024-01-06T17:48:02;15.80;;;5.90;;
75272;SDS011;63869;52.344;16.928;2024-01-06T17:50:28;16.55;;;5.53;;
75272;SDS011;63869;52.344;16.928;2024-01-06T17:52:53;17.35;;;6.72;;
75272;SDS011;63869;52.344;16.928;2024-01-06T17:55:25;18.15;;;6.38;;
75272;SDS011;63869;52.344;16.928;2024-01-06T17:57:54;17.35;;;5.53;;
75272;SDS011;63869;52.344;16.928;2024-01-06T18:00:19;18.13;;;6.78;;
75272;SDS011;63869;52.344;16.928;2024-01-06T18:02:45;16.10;;;6.65;;
75272;SDS011;63869;52.344;16.928;2024-01-06T18:05:12;13.63;;;5.43;;
75272;SDS011;63869;52.344;16.928;2024-01-06T18:07:37;14.07;;;5.80;;
75272;SDS011;63869;52.344;16.928;2024-01-06T18:10:04;10.32;;;4.70;;
75272;SDS011;63869;52.344;16.928;2024-01-06T18:12:30;13.50;;;5.32;;
75272;SDS011;63869;52.344;16.928;2024-01-06T18:14:56;10.20;;;4.53;;
75272;SDS011;63869;52.344;16.928;2024-01-06T18:17:21;14.35;;;6.38;;
75272;SDS011;63869;52.344;16.928;2024-01-06T18:19:46;14.20;;;5.10;;
75272;SDS011;63869;52.344;16.928;2024-01-06T18:22:11;11.20;;;4.97;;
75272;SDS011;63869;52.344;16.928;2024-01-06T18:24:37;12.80;;;4.95;;
75272;SDS011;63869;52.344;16.928;2024-01-06T18:27:03;10.88;;;5.50;;
75272;SDS011;63869;52.344;16.928;2024-01-06T18:29:29;10.75;;;4.72;;
75272;SDS011;63869;52.344;16.928;2024-01-06T18:31:58;10.07;;;4.85;;
75272;SDS011;63869;52.344;16.928;2024-01-06T18:34:23;12.13;;;5.25;;
75272;SDS011;63869;52.344;16.928;2024-01-06T18:36:49;10.93;;;5.07;;
75272;SDS011;63869;52.344;16.928;2024-01-06T18:39:14;12.35;;;5.45;;
75272;SDS011;63869;52.344;16.928;2024-01-06T18:41:39;10.73;;;4.70;;
75272;SDS011;63869;52.344;16.928;2024-01-06T18:44:04;9.35;;;3.90;;
75272;SDS011;63869;52.344;16.928;2024-01-06T18:46:34;9.02;;;4.20;;
75272;SDS011;63869;52.344;16.928;2024-01-06T18:48:59;10.70;;;4.68;;
75272;SDS011;63869;52.344;16.928;2024-01-06T18:51:24;10.27;;;4.75;;
75272;SDS011;63869;52.344;16.928;2024-01-06T18:53:50;17.60;;;6.32;;
75272;SDS011;63869;52.344;16.928;2024-01-06T18:56:15;20.27;;;7.30;;
75272;SDS011;63869;52.344;16.928;2024-01-06T18:58:40;12.20;;;4.82;;
75272;SDS011;63869;52.344;16.928;2024-01-06T19:01:05;11.13;;;5.38;;
75272;SDS011;63869;52.344;16.928;2024-01-06T19:03:30;19.05;;;6.53;;
75272;SDS011;63869;52.344;16.928;2024-01-06T19:05:56;17.63;;;6.80;;
75272;SDS011;63869;52.344;16.928;2024-01-06T19:08:21;18.23;;;6.95;;
75272;SDS011;63869;52.344;16.928;2024-01-06T19:10:46;12.05;;;5.70;;
75272;SDS011;63869;52.344;16.928;2024-01-06T19:13:12;20.40;;;7.68;;
75272;SDS011;63869;52.344;16.928;2024-01-06T19:15:37;12.65;;;5.30;;
75272;SDS011;63869;52.344;16.928;2024-01-06T19:18:05;17.98;;;7.13;;
75272;SDS011;63869;52.344;16.928;2024-01-06T19:20:30;13.75;;;5.22;;
75272;SDS011;63869;52.344;16.928;2024-01-06T19:22:55;19.48;;;7.63;;
75272;SDS011;63869;52.344;16.928;2024-01-06T19:25:21;14.63;;;6.18;;
75272;SDS011;63869;52.344;16.928;2024-01-06T19:27:46;15.93;;;6.57;;
75272;SDS011;63869;52.344;16.928;2024-01-06T19:30:11;14.05;;;5.65;;
75272;SDS011;63869;52.344;16.928;2024-01-06T19:32:40;13.30;;;5.70;;
75272;SDS011;63869;52.344;16.928;2024-01-06T19:35:05;16.33;;;6.35;;
75272;SDS011;63869;52.344;16.928;2024-01-06T19:37:32;15.25;;;6.60;;
75272;SDS011;63869;52.344;16.928;2024-01-06T19:39:58;12.60;;;5.45;;
75272;SDS011;63869;52.344;16.928;2024-01-06T19:42:24;12.90;;;5.70;;
75272;SDS011;63869;52.344;16.928;2024-01-06T19:44:58;13.70;;;5.93;;
75272;SDS011;63869;52.344;16.928;2024-01-06T19:47:23;13.68;;;5.88;;
75272;SDS011;63869;52.344;16.928;2024-01-06T19:49:50;26.15;;;10.13;;
75272;SDS011;63869;52.344;16.928;2024-01-06T19:52:16;15.20;;;6.20;;
75272;SDS011;63869;52.344;16.928;2024-01-06T19:54:42;14.48;;;5.70;;
75272;SDS011;63869;52.344;16.928;2024-01-06T19:57:09;10.57;;;5.35;;
75272;SDS011;63869;52.344;16.928;2024-01-06T19:59:35;12.15;;;5.55;;
75272;SDS011;63869;52.344;16.928;2024-01-06T20:02:00;12.75;;;5.95;;
75272;SDS011;63869;52.344;16.928;2024-01-06T20:04:25;11.95;;;5.47;;
75272;SDS011;63869;52.344;16.928;2024-01-06T20:06:51;11.07;;;5.18;;
75272;SDS011;63869;52.344;16.928;2024-01-06T20:09:16;11.88;;;5.43;;
75272;SDS011;63869;52.344;16.928;2024-01-06T20:11:41;10.88;;;5.15;;
75272;SDS011;63869;52.344;16.928;2024-01-06T20:14:07;12.43;;;5.50;;
75272;SDS011;63869;52.344;16.928;2024-01-06T20:16:32;12.32;;;4.85;;
75272;SDS011;63869;52.344;16.928;2024-01-06T20:18:59;10.80;;;4.70;;
75272;SDS011;63869;52.344;16.928;2024-01-06T20:21:24;9.80;;;4.80;;
75272;SDS011;63869;52.344;16.928;2024-01-06T20:23:49;10.38;;;4.85;;
75272;SDS011;63869;52.344;16.928;2024-01-06T20:26:15;9.85;;;4.25;;
75272;SDS011;63869;52.344;16.928;2024-01-06T20:28:41;14.07;;;5.40;;
75272;SDS011;63869;52.344;16.928;2024-01-06T20:31:06;10.80;;;4.72;;
75272;SDS011;63869;52.344;16.928;2024-01-06T20:33:31;11.77;;;4.80;;
75272;SDS011;63869;52.344;16.928;2024-01-06T20:35:59;13.13;;;4.72;;
75272;SDS011;63869;52.344;16.928;2024-01-06T20:38:24;9.05;;;4.70;;
75272;SDS011;63869;52.344;16.928;2024-01-06T20:40:49;8.38;;;4.60;;
75272;SDS011;63869;52.344;16.928;2024-01-06T20:43:15;10.18;;;4.57;;
75272;SDS011;63869;52.344;16.928;2024-01-06T20:45:41;10.98;;;4.55;;
75272;SDS011;63869;52.344;16.928;2024-01-06T20:48:06;9.35;;;4.80;;
75272;SDS011;63869;52.344;16.928;2024-01-06T20:50:33;8.50;;;4.40;;
75272;SDS011;63869;52.344;16.928;2024-01-06T20:52:58;10.68;;;4.32;;
75272;SDS011;63869;52.344;16.928;2024-01-06T20:55:23;13.20;;;4.72;;
75272;SDS011;63869;52.344;16.928;2024-01-06T20:57:48;12.85;;;4.97;;
75272;SDS011;63869;52.344;16.928;2024-01-06T21:00:14;9.65;;;5.03;;
75272;SDS011;63869;52.344;16.928;2024-01-06T21:02:41;14.98;;;4.60;;
75272;SDS011;63869;52.344;16.928;2024-01-06T21:05:07;12.25;;;4.57;;
75272;SDS011;63869;52.344;16.928;2024-01-06T21:07:32;9.38;;;4.47;;
75272;SDS011;63869;52.344;16.928;2024-01-06T21:09:59;9.98;;;4.55;;
75272;SDS011;63869;52.344;16.928;2024-01-06T21:12:27;12.35;;;4.50;;
75272;SDS011;63869;52.344;16.928;2024-01-06T21:14:53;11.20;;;4.57;;
75272;SDS011;63869;52.344;16.928;2024-01-06T21:17:20;9.45;;;4.32;;
75272;SDS011;63869;52.344;16.928;2024-01-06T21:22:19;10.85;;;4.40;;
75272;SDS011;63869;52.344;16.928;2024-01-06T21:24:50;10.18;;;4.78;;
75272;SDS011;63869;52.344;16.928;2024-01-06T21:27:19;11.82;;;4.80;;
75272;SDS011;63869;52.344;16.928;2024-01-06T21:29:44;11.73;;;4.60;;
75272;SDS011;63869;52.344;16.928;2024-01-06T21:32:09;10.38;;;4.00;;
75272;SDS011;63869;52.344;16.928;2024-01-06T21:34:36;10.15;;;4.80;;
75272;SDS011;63869;52.344;16.928;2024-01-06T21:37:02;8.82;;;4.57;;
75272;SDS011;63869;52.344;16.928;2024-01-06T21:39:28;12.40;;;5.00;;
75272;SDS011;63869;52.344;16.928;2024-01-06T21:41:53;11.10;;;4.50;;
75272;SDS011;63869;52.344;16.928;2024-01-06T21:44:18;11.65;;;5.00;;
75272;SDS011;63869;52.344;16.928;2024-01-06T21:46:47;11.45;;;4.78;;
75272;SDS011;63869;52.344;16.928;2024-01-06T21:49:15;9.88;;;4.45;;
75272;SDS011;63869;52.344;16.928;2024-01-06T21:51:46;8.77;;;4.45;;
75272;SDS011;63869;52.344;16.928;2024-01-06T21:54:11;9.77;;;4.60;;
75272;SDS011;63869;52.344;16.928;2024-01-06T21:56:36;10.43;;;4.30;;
75272;SDS011;63869;52.344;16.928;2024-01-06T21:59:02;10.05;;;4.28;;
75272;SDS011;63869;52.344;16.928;2024-01-06T22:01:27;10.77;;;4.70;;
75272;SDS011;63869;52.344;16.928;2024-01-06T22:03:52;8.48;;;4.10;;
75272;SDS011;63869;52.344;16.928;2024-01-06T22:06:19;12.07;;;4.43;;
75272;SDS011;63869;52.344;16.928;2024-01-06T22:08:44;8.13;;;4.40;;
75272;SDS011;63869;52.344;16.928;2024-01-06T22:11:09;11.90;;;4.57;;
75272;SDS011;63869;52.344;16.928;2024-01-06T22:13:34;9.20;;;4.28;;
75272;SDS011;63869;52.344;16.928;2024-01-06T22:16:00;10.05;;;4.18;;
75272;SDS011;63869;52.344;16.928;2024-01-06T22:18:25;9.82;;;4.43;;
75272;SDS011;63869;52.344;16.928;2024-01-06T22:20:50;9.48;;;4.15;;
75272;SDS011;63869;52.344;16.928;2024-01-06T22:23:15;10.55;;;3.65;;
75272;SDS011;63869;52.344;16.928;2024-01-06T22:25:41;7.47;;;4.25;;
75272;SDS011;63869;52.344;16.928;2024-01-06T22:28:06;8.15;;;4.07;;
75272;SDS011;63869;52.344;16.928;2024-01-06T22:30:31;7.15;;;4.07;;
75272;SDS011;63869;52.344;16.928;2024-01-06T22:32:56;15.15;;;4.07;;
75272;SDS011;63869;52.344;16.928;2024-01-06T22:35:22;10.55;;;4.60;;
75272;SDS011;63869;52.344;16.928;2024-01-06T22:37:47;11.98;;;4.32;;
75272;SDS011;63869;52.344;16.928;2024-01-06T22:40:12;10.60;;;4.53;;
75272;SDS011;63869;52.344;16.928;2024-01-06T22:42:37;9.30;;;3.83;;
75272;SDS011;63869;52.344;16.928;2024-01-06T22:45:03;15.05;;;4.40;;
75272;SDS011;63869;52.344;16.928;2024-01-06T22:47:28;8.63;;;4.03;;
75272;SDS011;63869;52.344;16.928;2024-01-06T22:49:53;8.27;;;4.03;;
75272;SDS011;63869;52.344;16.928;2024-01-06T22:52:19;12.52;;;3.92;;
75272;SDS011;63869;52.344;16.928;2024-01-06T22:54:44;8.20;;;3.80;;
75272;SDS011;63869;52.344;16.928;2024-01-06T22:57:09;7.82;;;3.85;;
75272;SDS011;63869;52.344;16.928;2024-01-06T22:59:35;9.95;;;3.95;;
75272;SDS011;63869;52.344;16.928;2024-01-06T23:02:00;9.88;;;3.72;;
75272;SDS011;63869;52.344;16.928;2024-01-06T23:04:25;6.80;;;3.50;;
75272;SDS011;63869;52.344;16.928;2024-01-06T23:06:51;8.68;;;3.90;;
75272;SDS011;63869;52.344;16.928;2024-01-06T23:09:18;7.25;;;3.85;;
75272;SDS011;63869;52.344;16.928;2024-01-06T23:11:44;7.05;;;3.67;;
75272;SDS011;63869;52.344;16.928;2024-01-06T23:14:09;8.88;;;4.00;;
75272;SDS011;63869;52.344;16.928;2024-01-06T23:16:35;8.70;;;3.67;;
75272;SDS011;63869;52.344;16.928;2024-01-06T23:19:00;10.00;;;3.90;;
75272;SDS011;63869;52.344;16.928;2024-01-06T23:21:25;5.45;;;3.20;;
75272;SDS011;63869;52.344;16.928;2024-01-06T23:23:51;7.90;;;3.38;;
75272;SDS011;63869;52.344;16.928;2024-01-06T23:26:16;6.75;;;3.28;;
75272;SDS011;63869;52.344;16.928;2024-01-06T23:28:42;7.63;;;3.50;;
75272;SDS011;63869;52.344;16.928;2024-01-06T23:31:08;8.88;;;3.35;;
75272;SDS011;63869;52.344;16.928;2024-01-06T23:33:34;7.63;;;3.50;;
75272;SDS011;63869;52.344;16.928;2024-01-06T23:35:59;6.97;;;3.55;;
75272;SDS011;63869;52.344;16.928;2024-01-06T23:38:24;6.45;;;2.92;;
75272;SDS011;63869;52.344;16.928;2024-01-06T23:40:49;6.95;;;3.85;;
75272;SDS011;63869;52.344;16.928;2024-01-06T23:43:15;7.10;;;3.15;;
75272;SDS011;63869;52.344;16.928;2024-01-06T23:45:41;8.45;;;3.50;;
75272;SDS011;63869;52.344;16.928;2024-01-06T23:48:06;6.47;;;3.40;;
75272;SDS011;63869;52.344;16.928;2024-01-06T23:50:32;6.75;;;3.05;;
75272;SDS011;63869;52.344;16.928;2024-01-06T23:52:57;5.47;;;3.05;;
75272;SDS011;63869;52.344;16.928;2024-01-06T23:55:22;7.72;;;3.25;;
75272;SDS011;63869;52.344;16.928;2024-01-06T23:57:47;5.85;;;3.03;;
